createdAt,value
2016-10-30T00:00:09.005Z,1007.1
2016-10-30T00:00:29.599Z,1007.1
2016-10-30T00:00:50.219Z,1007.1
2016-10-30T00:01:10.845Z,1007.1
2016-10-30T00:01:31.442Z,1007.1
2016-10-30T00:01:52.005Z,1007.2
2016-10-30T00:02:12.567Z,1007.1
2016-10-30T00:02:33.138Z,1007.1
2016-10-30T00:02:53.752Z,1007.1
2016-10-30T00:03:14.319Z,1007.1
2016-10-30T00:03:34.897Z,1007.1
2016-10-30T00:03:55.473Z,1007.2
2016-10-30T00:04:16.069Z,1007.1
2016-10-30T00:04:36.641Z,1007.1
2016-10-30T00:04:57.242Z,1007.1
2016-10-30T00:05:17.802Z,1007.1
2016-10-30T00:05:38.410Z,1007.1
2016-10-30T00:05:58.969Z,1007.1
2016-10-30T00:06:19.541Z,1007.1
2016-10-30T00:06:40.103Z,1007.1
2016-10-30T00:07:00.692Z,1007.1
2016-10-30T00:07:21.253Z,1007.1
2016-10-30T00:07:41.832Z,1007.1
2016-10-30T00:08:02.479Z,1007.1
2016-10-30T00:08:23.067Z,1007.1
2016-10-30T00:08:43.631Z,1007.1
2016-10-30T00:09:04.194Z,1007.1
2016-10-30T00:09:24.774Z,1007.1
2016-10-30T00:09:45.385Z,1007.1
2016-10-30T00:10:05.986Z,1007.1
2016-10-30T00:10:26.628Z,1007.1
2016-10-30T00:10:47.257Z,1007.2
2016-10-30T00:11:07.818Z,1007.1
2016-10-30T00:11:28.452Z,1007.1
2016-10-30T00:11:49.049Z,1007.2
2016-10-30T00:12:09.630Z,1007.1
2016-10-30T00:12:30.200Z,1007.2
2016-10-30T00:12:50.806Z,1007.1
2016-10-30T00:13:11.371Z,1007.2
2016-10-30T00:13:31.952Z,1007.1
2016-10-30T00:13:52.519Z,1007.2
2016-10-30T00:14:13.092Z,1007.2
2016-10-30T00:14:33.658Z,1007.1
2016-10-30T00:14:54.261Z,1007.2
2016-10-30T00:15:14.850Z,1007.2
2016-10-30T00:15:35.403Z,1007.2
2016-10-30T00:15:55.973Z,1007.2
2016-10-30T00:16:16.534Z,1007.2
2016-10-30T00:16:37.135Z,1007.2
2016-10-30T00:16:57.736Z,1007.2
2016-10-30T00:17:18.296Z,1007.1
2016-10-30T00:17:38.873Z,1007.2
2016-10-30T00:17:59.445Z,1007.1
2016-10-30T00:18:20.040Z,1007.1
2016-10-30T00:18:40.604Z,1007.2
2016-10-30T00:19:01.176Z,1007.2
2016-10-30T00:19:21.740Z,1007.2
2016-10-30T00:19:42.307Z,1007.1
2016-10-30T00:20:02.916Z,1007.1
2016-10-30T00:20:23.568Z,1007.1
2016-10-30T00:20:44.155Z,1007.1
2016-10-30T00:21:04.718Z,1007.2
2016-10-30T00:21:25.377Z,1007.1
2016-10-30T00:21:45.945Z,1007.1
2016-10-30T00:22:06.513Z,1007.1
2016-10-30T00:22:27.158Z,1007.1
2016-10-30T00:22:47.764Z,1007.1
2016-10-30T00:23:08.332Z,1007.1
2016-10-30T00:23:28.901Z,1007.1
2016-10-30T00:23:49.464Z,1007.1
2016-10-30T00:24:10.034Z,1007.1
2016-10-30T00:24:30.645Z,1007
2016-10-30T00:24:51.239Z,1007
2016-10-30T00:25:11.807Z,1007
2016-10-30T00:25:32.427Z,1007
2016-10-30T00:25:53.059Z,1007.1
2016-10-30T00:26:13.657Z,1007.1
2016-10-30T00:26:34.225Z,1007
2016-10-30T00:26:54.836Z,1007
2016-10-30T00:27:15.452Z,1007
2016-10-30T00:27:36.041Z,1007
2016-10-30T00:27:56.597Z,1007
2016-10-30T00:28:17.167Z,1007
2016-10-30T00:28:37.735Z,1007
2016-10-30T00:28:58.396Z,1007
2016-10-30T00:29:18.955Z,1007.1
2016-10-30T00:29:39.517Z,1007.1
2016-10-30T00:30:00.112Z,1007.1
2016-10-30T00:30:20.708Z,1007.1
2016-10-30T00:30:41.276Z,1007.1
2016-10-30T00:31:01.860Z,1007.1
2016-10-30T00:31:22.427Z,1007
2016-10-30T00:31:43.018Z,1007.1
2016-10-30T00:32:03.661Z,1007
2016-10-30T00:32:24.212Z,1007.1
2016-10-30T00:32:44.769Z,1007.1
2016-10-30T00:33:05.364Z,1007.1
2016-10-30T00:33:25.933Z,1007.1
2016-10-30T00:33:46.516Z,1007.1
2016-10-30T00:34:07.102Z,1007.1
2016-10-30T00:34:27.667Z,1007.1
2016-10-30T00:34:48.227Z,1007.1
2016-10-30T00:35:08.789Z,1007.1
2016-10-30T00:35:29.360Z,1007.1
2016-10-30T00:35:50.008Z,1007.1
2016-10-30T00:36:10.617Z,1007
2016-10-30T00:36:31.184Z,1007.1
2016-10-30T00:36:51.750Z,1007.1
2016-10-30T00:37:12.324Z,1007
2016-10-30T00:37:32.950Z,1007
2016-10-30T00:37:53.505Z,1007
2016-10-30T00:38:14.094Z,1007
2016-10-30T00:38:34.707Z,1007
2016-10-30T00:38:55.295Z,1007
2016-10-30T00:39:15.884Z,1007
2016-10-30T00:39:36.459Z,1007.1
2016-10-30T00:39:57.149Z,1007
2016-10-30T00:40:17.713Z,1007
2016-10-30T00:40:38.284Z,1007
2016-10-30T00:40:59.752Z,1007
2016-10-30T00:41:20.312Z,1007
2016-10-30T00:41:40.909Z,1007
2016-10-30T00:42:01.499Z,1007
2016-10-30T00:42:22.064Z,1007
2016-10-30T00:42:42.635Z,1007
2016-10-30T00:43:03.235Z,1007
2016-10-30T00:43:23.815Z,1007
2016-10-30T00:43:44.391Z,1007
2016-10-30T00:44:04.990Z,1006.9
2016-10-30T00:44:25.547Z,1007
2016-10-30T00:44:46.111Z,1007
2016-10-30T00:45:06.724Z,1007
2016-10-30T00:45:27.344Z,1007
2016-10-30T00:45:47.912Z,1007
2016-10-30T00:46:08.473Z,1007
2016-10-30T00:46:29.034Z,1007
2016-10-30T00:46:49.630Z,1007
2016-10-30T00:47:10.219Z,1007
2016-10-30T00:47:30.812Z,1007
2016-10-30T00:47:51.415Z,1007
2016-10-30T00:48:12.044Z,1007
2016-10-30T00:48:32.693Z,1006.9
2016-10-30T00:48:53.257Z,1006.9
2016-10-30T00:49:13.835Z,1006.9
2016-10-30T00:49:34.418Z,1007
2016-10-30T00:49:54.993Z,1006.9
2016-10-30T00:50:15.570Z,1006.9
2016-10-30T00:50:36.141Z,1006.9
2016-10-30T00:50:56.705Z,1006.9
2016-10-30T00:51:17.267Z,1006.9
2016-10-30T00:51:37.836Z,1006.9
2016-10-30T00:51:58.431Z,1006.9
2016-10-30T00:52:18.996Z,1006.9
2016-10-30T00:52:39.603Z,1006.9
2016-10-30T00:53:00.218Z,1006.8
2016-10-30T00:53:20.786Z,1006.9
2016-10-30T00:53:41.388Z,1006.9
2016-10-30T00:54:02.050Z,1006.9
2016-10-30T00:54:22.615Z,1006.9
2016-10-30T00:54:43.194Z,1006.9
2016-10-30T00:55:03.742Z,1006.9
2016-10-30T00:55:24.318Z,1006.9
2016-10-30T00:55:44.988Z,1006.9
2016-10-30T00:56:05.552Z,1006.9
2016-10-30T00:56:26.151Z,1006.9
2016-10-30T00:56:47.240Z,1006.9
2016-10-30T00:57:07.818Z,1006.9
2016-10-30T00:57:28.391Z,1006.9
2016-10-30T00:57:48.948Z,1006.8
2016-10-30T00:58:09.513Z,1006.9
2016-10-30T00:58:30.074Z,1006.8
2016-10-30T00:58:50.656Z,1006.8
2016-10-30T00:59:11.261Z,1006.9
2016-10-30T00:59:31.828Z,1006.8
2016-10-30T00:59:52.412Z,1006.9
2016-10-30T01:00:12.987Z,1006.9
2016-10-30T01:00:33.569Z,1006.9
2016-10-30T01:00:54.128Z,1006.9
2016-10-30T01:01:14.699Z,1006.9
2016-10-30T01:01:35.261Z,1006.9
2016-10-30T01:01:55.825Z,1006.9
2016-10-30T01:02:16.394Z,1006.9
2016-10-30T01:02:36.990Z,1006.9
2016-10-30T01:02:57.592Z,1006.9
2016-10-30T01:03:18.167Z,1006.9
2016-10-30T01:03:38.748Z,1006.8
2016-10-30T01:03:59.313Z,1006.8
2016-10-30T01:04:19.885Z,1006.9
2016-10-30T01:04:40.529Z,1006.8
2016-10-30T01:05:01.111Z,1006.8
2016-10-30T01:05:21.691Z,1006.8
2016-10-30T01:05:42.250Z,1006.8
2016-10-30T01:06:02.941Z,1006.9
2016-10-30T01:06:23.495Z,1006.8
2016-10-30T01:06:44.072Z,1006.9
2016-10-30T01:07:04.678Z,1006.8
2016-10-30T01:07:25.271Z,1006.8
2016-10-30T01:07:45.830Z,1006.8
2016-10-30T01:08:06.410Z,1006.8
2016-10-30T01:08:27.014Z,1006.8
2016-10-30T01:08:47.578Z,1006.8
2016-10-30T01:09:08.158Z,1006.8
2016-10-30T01:09:28.740Z,1006.8
2016-10-30T01:09:49.311Z,1006.8
2016-10-30T01:10:09.883Z,1006.8
2016-10-30T01:10:30.495Z,1006.8
2016-10-30T01:10:51.057Z,1006.8
2016-10-30T01:11:11.685Z,1006.8
2016-10-30T01:11:32.244Z,1006.8
2016-10-30T01:11:52.856Z,1006.8
2016-10-30T01:12:13.423Z,1006.8
2016-10-30T01:12:34.031Z,1006.8
2016-10-30T01:12:54.608Z,1006.8
2016-10-30T01:13:15.200Z,1006.8
2016-10-30T01:13:35.760Z,1006.8
2016-10-30T01:13:56.322Z,1006.8
2016-10-30T01:14:16.911Z,1006.8
2016-10-30T01:14:37.482Z,1006.8
2016-10-30T01:14:58.136Z,1006.8
2016-10-30T01:15:18.747Z,1006.7
2016-10-30T01:15:39.337Z,1006.7
2016-10-30T01:15:59.905Z,1006.7
2016-10-30T01:16:20.502Z,1006.8
2016-10-30T01:16:41.068Z,1006.7
2016-10-30T01:17:01.659Z,1006.7
2016-10-30T01:17:22.262Z,1006.8
2016-10-30T01:17:42.858Z,1006.7
2016-10-30T01:18:03.424Z,1006.8
2016-10-30T01:18:24.019Z,1006.8
2016-10-30T01:18:44.592Z,1006.8
2016-10-30T01:19:05.160Z,1006.8
2016-10-30T01:19:25.732Z,1006.8
2016-10-30T01:19:46.331Z,1006.8
2016-10-30T01:20:06.911Z,1006.8
2016-10-30T01:20:27.495Z,1006.8
2016-10-30T01:20:48.060Z,1006.8
2016-10-30T01:21:08.644Z,1006.7
2016-10-30T01:21:29.263Z,1006.8
2016-10-30T01:21:49.824Z,1006.8
2016-10-30T01:22:10.387Z,1006.8
2016-10-30T01:22:30.944Z,1006.8
2016-10-30T01:22:51.516Z,1006.7
2016-10-30T01:23:12.116Z,1006.7
2016-10-30T01:23:32.681Z,1006.7
2016-10-30T01:23:53.238Z,1006.7
2016-10-30T01:24:13.828Z,1006.7
2016-10-30T01:24:34.423Z,1006.7
2016-10-30T01:24:54.992Z,1006.7
2016-10-30T01:25:15.609Z,1006.7
2016-10-30T01:25:36.164Z,1006.7
2016-10-30T01:25:56.748Z,1006.7
2016-10-30T01:26:17.354Z,1006.7
2016-10-30T01:26:37.921Z,1006.7
2016-10-30T01:26:58.492Z,1006.7
2016-10-30T01:27:19.064Z,1006.7
2016-10-30T01:27:39.624Z,1006.7
2016-10-30T01:28:00.185Z,1006.7
2016-10-30T01:28:20.751Z,1006.7
2016-10-30T01:28:41.330Z,1006.6
2016-10-30T01:29:01.908Z,1006.6
2016-10-30T01:29:22.477Z,1006.6
2016-10-30T01:29:43.070Z,1006.7
2016-10-30T01:30:03.633Z,1006.6
2016-10-30T01:30:24.238Z,1006.7
2016-10-30T01:30:44.799Z,1006.6
2016-10-30T01:31:05.396Z,1006.7
2016-10-30T01:31:25.952Z,1006.6
2016-10-30T01:31:46.641Z,1006.7
2016-10-30T01:32:07.200Z,1006.7
2016-10-30T01:32:27.836Z,1006.7
2016-10-30T01:32:48.403Z,1006.6
2016-10-30T01:33:08.999Z,1006.7
2016-10-30T01:33:29.600Z,1006.7
2016-10-30T01:33:50.164Z,1006.7
2016-10-30T01:34:10.725Z,1006.7
2016-10-30T01:34:31.355Z,1006.7
2016-10-30T01:34:51.938Z,1006.7
2016-10-30T01:35:12.507Z,1006.7
2016-10-30T01:35:33.131Z,1006.7
2016-10-30T01:35:53.723Z,1006.7
2016-10-30T01:36:14.292Z,1006.7
2016-10-30T01:36:34.852Z,1006.7
2016-10-30T01:36:55.448Z,1006.7
2016-10-30T01:37:16.011Z,1006.7
2016-10-30T01:37:36.561Z,1006.7
2016-10-30T01:37:57.146Z,1006.7
2016-10-30T01:38:17.747Z,1006.7
2016-10-30T01:38:38.315Z,1006.7
2016-10-30T01:38:58.865Z,1006.7
2016-10-30T01:39:19.432Z,1006.7
2016-10-30T01:39:40.007Z,1006.6
2016-10-30T01:40:00.606Z,1006.6
2016-10-30T01:40:21.163Z,1006.6
2016-10-30T01:40:41.773Z,1006.6
2016-10-30T01:41:02.397Z,1006.7
2016-10-30T01:41:22.959Z,1006.6
2016-10-30T01:41:43.521Z,1006.6
2016-10-30T01:42:04.074Z,1006.7
2016-10-30T01:42:24.712Z,1006.7
2016-10-30T01:42:45.277Z,1006.7
2016-10-30T01:43:05.841Z,1006.7
2016-10-30T01:43:26.405Z,1006.7
2016-10-30T01:43:47.040Z,1006.7
2016-10-30T01:44:07.601Z,1006.7
2016-10-30T01:44:28.757Z,1006.7
2016-10-30T01:44:49.314Z,1006.7
2016-10-30T01:45:09.894Z,1006.7
2016-10-30T01:45:30.468Z,1006.7
2016-10-30T01:45:51.039Z,1006.7
2016-10-30T01:46:11.610Z,1006.7
2016-10-30T01:46:32.172Z,1006.7
2016-10-30T01:46:52.742Z,1006.7
2016-10-30T01:47:13.298Z,1006.7
2016-10-30T01:47:33.908Z,1006.7
2016-10-30T01:47:54.478Z,1006.7
2016-10-30T01:48:15.035Z,1006.7
2016-10-30T01:48:35.631Z,1006.7
2016-10-30T01:48:56.201Z,1006.7
2016-10-30T01:49:16.765Z,1006.7
2016-10-30T01:49:37.341Z,1006.7
2016-10-30T01:49:57.910Z,1006.7
2016-10-30T01:50:18.532Z,1006.7
2016-10-30T01:50:39.141Z,1006.7
2016-10-30T01:50:59.694Z,1006.7
2016-10-30T01:51:20.247Z,1006.7
2016-10-30T01:51:40.851Z,1006.7
2016-10-30T01:52:01.411Z,1006.7
2016-10-30T01:52:21.980Z,1006.7
2016-10-30T01:52:42.548Z,1006.7
2016-10-30T01:53:03.147Z,1006.7
2016-10-30T01:53:23.705Z,1006.7
2016-10-30T01:53:44.309Z,1006.7
2016-10-30T01:54:04.906Z,1006.7
2016-10-30T01:54:25.481Z,1006.7
2016-10-30T01:54:46.055Z,1006.7
2016-10-30T01:55:06.643Z,1006.7
2016-10-30T01:55:27.203Z,1006.7
2016-10-30T01:55:47.749Z,1006.7
2016-10-30T01:56:08.374Z,1006.7
2016-10-30T01:56:28.942Z,1006.7
2016-10-30T01:56:49.519Z,1006.7
2016-10-30T01:57:10.165Z,1006.7
2016-10-30T01:57:30.730Z,1006.7
2016-10-30T01:57:51.292Z,1006.7
2016-10-30T01:58:11.841Z,1006.7
2016-10-30T01:58:32.467Z,1006.7
2016-10-30T01:58:53.080Z,1006.7
2016-10-30T01:59:13.695Z,1006.7
2016-10-30T01:59:34.302Z,1006.7
2016-10-30T01:59:54.895Z,1006.7
2016-10-30T02:00:15.498Z,1006.7
2016-10-30T02:00:36.093Z,1006.7
2016-10-30T02:00:56.673Z,1006.8
2016-10-30T02:01:17.231Z,1006.7
2016-10-30T02:01:37.816Z,1006.7
2016-10-30T02:01:58.383Z,1006.7
2016-10-30T02:02:19.022Z,1006.7
2016-10-30T02:02:39.587Z,1006.7
2016-10-30T02:03:00.175Z,1006.7
2016-10-30T02:03:20.739Z,1006.7
2016-10-30T02:03:41.297Z,1006.7
2016-10-30T02:04:01.921Z,1006.7
2016-10-30T02:04:22.486Z,1006.7
2016-10-30T02:04:43.054Z,1006.7
2016-10-30T02:05:03.614Z,1006.7
2016-10-30T02:05:24.216Z,1006.7
2016-10-30T02:05:44.809Z,1006.8
2016-10-30T02:06:05.412Z,1006.7
2016-10-30T02:06:25.978Z,1006.7
2016-10-30T02:06:46.601Z,1006.7
2016-10-30T02:07:07.158Z,1006.7
2016-10-30T02:07:27.728Z,1006.7
2016-10-30T02:07:48.288Z,1006.7
2016-10-30T02:08:08.848Z,1006.7
2016-10-30T02:08:29.449Z,1006.7
2016-10-30T02:08:50.028Z,1006.7
2016-10-30T02:09:10.670Z,1006.7
2016-10-30T02:09:31.273Z,1006.7
2016-10-30T02:09:51.835Z,1006.7
2016-10-30T02:10:12.410Z,1006.7
2016-10-30T02:10:32.975Z,1006.7
2016-10-30T02:10:53.535Z,1006.7
2016-10-30T02:11:14.096Z,1006.7
2016-10-30T02:11:34.696Z,1006.7
2016-10-30T02:11:55.285Z,1006.7
2016-10-30T02:12:15.874Z,1006.7
2016-10-30T02:12:36.439Z,1006.6
2016-10-30T02:12:57.020Z,1006.6
2016-10-30T02:13:17.588Z,1006.7
2016-10-30T02:13:38.179Z,1006.7
2016-10-30T02:13:58.771Z,1006.7
2016-10-30T02:14:19.396Z,1006.7
2016-10-30T02:14:39.983Z,1006.7
2016-10-30T02:15:00.539Z,1006.6
2016-10-30T02:15:21.123Z,1006.7
2016-10-30T02:15:41.781Z,1006.7
2016-10-30T02:16:02.430Z,1006.6
2016-10-30T02:16:23.021Z,1006.7
2016-10-30T02:16:43.615Z,1006.7
2016-10-30T02:17:04.185Z,1006.6
2016-10-30T02:17:24.797Z,1006.6
2016-10-30T02:17:45.443Z,1006.6
2016-10-30T02:18:06.000Z,1006.6
2016-10-30T02:18:26.566Z,1006.6
2016-10-30T02:18:47.151Z,1006.6
2016-10-30T02:19:07.744Z,1006.7
2016-10-30T02:19:28.368Z,1006.6
2016-10-30T02:19:49.031Z,1006.6
2016-10-30T02:20:09.608Z,1006.6
2016-10-30T02:20:30.235Z,1006.6
2016-10-30T02:20:50.835Z,1006.6
2016-10-30T02:21:11.428Z,1006.6
2016-10-30T02:21:32.000Z,1006.6
2016-10-30T02:21:52.558Z,1006.6
2016-10-30T02:22:13.113Z,1006.7
2016-10-30T02:22:33.684Z,1006.7
2016-10-30T02:22:54.241Z,1006.7
2016-10-30T02:23:14.812Z,1006.7
2016-10-30T02:23:35.380Z,1006.6
2016-10-30T02:23:55.938Z,1006.6
2016-10-30T02:24:16.487Z,1006.6
2016-10-30T02:24:37.040Z,1006.6
2016-10-30T02:24:57.604Z,1006.6
2016-10-30T02:25:18.210Z,1006.6
2016-10-30T02:25:38.819Z,1006.6
2016-10-30T02:25:59.387Z,1006.6
2016-10-30T02:26:19.944Z,1006.6
2016-10-30T02:26:40.553Z,1006.6
2016-10-30T02:27:01.120Z,1006.6
2016-10-30T02:27:21.717Z,1006.6
2016-10-30T02:27:42.287Z,1006.6
2016-10-30T02:28:02.849Z,1006.6
2016-10-30T02:28:23.417Z,1006.6
2016-10-30T02:28:44.009Z,1006.6
2016-10-30T02:29:04.574Z,1006.6
2016-10-30T02:29:25.146Z,1006.5
2016-10-30T02:29:45.703Z,1006.6
2016-10-30T02:30:06.261Z,1006.5
2016-10-30T02:30:26.902Z,1006.5
2016-10-30T02:30:47.502Z,1006.5
2016-10-30T02:31:08.055Z,1006.5
2016-10-30T02:31:28.686Z,1006.5
2016-10-30T02:31:49.249Z,1006.5
2016-10-30T02:32:09.828Z,1006.5
2016-10-30T02:32:30.449Z,1006.5
2016-10-30T02:32:51.030Z,1006.4
2016-10-30T02:33:11.620Z,1006.5
2016-10-30T02:33:32.201Z,1006.5
2016-10-30T02:33:52.779Z,1006.4
2016-10-30T02:34:13.345Z,1006.4
2016-10-30T02:34:33.931Z,1006.4
2016-10-30T02:34:54.610Z,1006.4
2016-10-30T02:35:15.593Z,1006.4
2016-10-30T02:35:36.340Z,1006.4
2016-10-30T02:35:57.186Z,1006.4
2016-10-30T02:36:17.852Z,1006.4
2016-10-30T02:36:38.457Z,1006.4
2016-10-30T02:36:59.030Z,1006.4
2016-10-30T02:37:19.630Z,1006.4
2016-10-30T02:37:40.238Z,1006.4
2016-10-30T02:38:00.808Z,1006.3
2016-10-30T02:38:21.406Z,1006.4
2016-10-30T02:38:41.993Z,1006.4
2016-10-30T02:39:02.551Z,1006.3
2016-10-30T02:39:23.114Z,1006.4
2016-10-30T02:39:43.667Z,1006.4
2016-10-30T02:40:04.262Z,1006.4
2016-10-30T02:40:24.825Z,1006.4
2016-10-30T02:40:45.378Z,1006.4
2016-10-30T02:41:05.944Z,1006.4
2016-10-30T02:41:26.516Z,1006.4
2016-10-30T02:41:47.086Z,1006.4
2016-10-30T02:42:07.639Z,1006.4
2016-10-30T02:42:28.299Z,1006.4
2016-10-30T02:42:48.927Z,1006.3
2016-10-30T02:43:09.524Z,1006.4
2016-10-30T02:43:30.125Z,1006.3
2016-10-30T02:43:50.681Z,1006.4
2016-10-30T02:44:11.260Z,1006.4
2016-10-30T02:44:31.819Z,1006.3
2016-10-30T02:44:52.444Z,1006.4
2016-10-30T02:45:13.052Z,1006.4
2016-10-30T02:45:33.640Z,1006.3
2016-10-30T02:45:54.201Z,1006.3
2016-10-30T02:46:14.811Z,1006.3
2016-10-30T02:46:35.367Z,1006.3
2016-10-30T02:46:55.948Z,1006.4
2016-10-30T02:47:16.512Z,1006.3
2016-10-30T02:47:37.140Z,1006.4
2016-10-30T02:47:57.716Z,1006.4
2016-10-30T02:48:18.273Z,1006.4
2016-10-30T02:48:38.914Z,1006.4
2016-10-30T02:48:59.488Z,1006.4
2016-10-30T02:49:20.054Z,1006.4
2016-10-30T02:49:40.617Z,1006.4
2016-10-30T02:50:01.183Z,1006.4
2016-10-30T02:50:21.762Z,1006.4
2016-10-30T02:50:42.329Z,1006.4
2016-10-30T02:51:02.896Z,1006.4
2016-10-30T02:51:23.462Z,1006.4
2016-10-30T02:51:44.057Z,1006.4
2016-10-30T02:52:04.672Z,1006.4
2016-10-30T02:52:25.230Z,1006.4
2016-10-30T02:52:45.814Z,1006.4
2016-10-30T02:53:06.429Z,1006.4
2016-10-30T02:53:27.006Z,1006.4
2016-10-30T02:53:47.571Z,1006.4
2016-10-30T02:54:08.165Z,1006.4
2016-10-30T02:54:28.740Z,1006.4
2016-10-30T02:54:49.306Z,1006.4
2016-10-30T02:55:09.904Z,1006.4
2016-10-30T02:55:30.474Z,1006.4
2016-10-30T02:55:51.035Z,1006.4
2016-10-30T02:56:11.608Z,1006.4
2016-10-30T02:56:32.241Z,1006.4
2016-10-30T02:56:52.871Z,1006.4
2016-10-30T02:57:13.443Z,1006.4
2016-10-30T02:57:34.034Z,1006.4
2016-10-30T02:57:54.612Z,1006.4
2016-10-30T02:58:15.181Z,1006.4
2016-10-30T02:58:35.761Z,1006.4
2016-10-30T02:58:56.328Z,1006.4
2016-10-30T02:59:16.967Z,1006.4
2016-10-30T02:59:37.530Z,1006.4
2016-10-30T02:59:58.067Z,1006.4
2016-10-30T03:00:18.646Z,1006.4
2016-10-30T03:00:39.210Z,1006.4
2016-10-30T03:00:59.766Z,1006.4
2016-10-30T03:01:20.335Z,1006.4
2016-10-30T03:01:40.907Z,1006.4
2016-10-30T03:02:01.471Z,1006.4
2016-10-30T03:02:22.054Z,1006.4
2016-10-30T03:02:42.627Z,1006.5
2016-10-30T03:03:03.194Z,1006.4
2016-10-30T03:03:23.793Z,1006.4
2016-10-30T03:03:44.387Z,1006.4
2016-10-30T03:04:04.942Z,1006.5
2016-10-30T03:04:25.505Z,1006.4
2016-10-30T03:04:46.073Z,1006.5
2016-10-30T03:05:06.638Z,1006.4
2016-10-30T03:05:27.203Z,1006.4
2016-10-30T03:05:47.796Z,1006.4
2016-10-30T03:06:08.432Z,1006.4
2016-10-30T03:06:29.017Z,1006.5
2016-10-30T03:06:49.617Z,1006.4
2016-10-30T03:07:10.208Z,1006.4
2016-10-30T03:07:30.836Z,1006.4
2016-10-30T03:07:51.391Z,1006.4
2016-10-30T03:08:11.952Z,1006.4
2016-10-30T03:08:32.494Z,1006.4
2016-10-30T03:08:53.067Z,1006.4
2016-10-30T03:09:13.662Z,1006.3
2016-10-30T03:09:34.273Z,1006.3
2016-10-30T03:09:54.828Z,1006.3
2016-10-30T03:10:15.395Z,1006.4
2016-10-30T03:10:36.039Z,1006.3
2016-10-30T03:10:56.651Z,1006.4
2016-10-30T03:11:17.216Z,1006.4
2016-10-30T03:11:37.820Z,1006.3
2016-10-30T03:11:58.377Z,1006.4
2016-10-30T03:12:18.980Z,1006.3
2016-10-30T03:12:39.574Z,1006.3
2016-10-30T03:13:00.123Z,1006.3
2016-10-30T03:13:20.712Z,1006.4
2016-10-30T03:13:41.309Z,1006.3
2016-10-30T03:14:01.883Z,1006.3
2016-10-30T03:14:22.463Z,1006.3
2016-10-30T03:14:43.040Z,1006.4
2016-10-30T03:15:03.617Z,1006.4
2016-10-30T03:15:24.192Z,1006.3
2016-10-30T03:15:44.754Z,1006.4
2016-10-30T03:16:05.342Z,1006.4
2016-10-30T03:16:25.987Z,1006.4
2016-10-30T03:16:46.589Z,1006.3
2016-10-30T03:17:07.158Z,1006.4
2016-10-30T03:17:27.755Z,1006.4
2016-10-30T03:17:48.329Z,1006.4
2016-10-30T03:18:08.887Z,1006.3
2016-10-30T03:18:29.453Z,1006.4
2016-10-30T03:18:50.039Z,1006.4
2016-10-30T03:19:10.608Z,1006.4
2016-10-30T03:19:31.169Z,1006.4
2016-10-30T03:19:51.801Z,1006.4
2016-10-30T03:20:12.375Z,1006.4
2016-10-30T03:20:32.919Z,1006.4
2016-10-30T03:20:53.491Z,1006.4
2016-10-30T03:21:14.061Z,1006.4
2016-10-30T03:21:34.624Z,1006.4
2016-10-30T03:21:55.177Z,1006.4
2016-10-30T03:22:15.788Z,1006.4
2016-10-30T03:22:36.329Z,1006.4
2016-10-30T03:22:56.899Z,1006.4
2016-10-30T03:23:17.525Z,1006.4
2016-10-30T03:23:38.136Z,1006.4
2016-10-30T03:23:58.704Z,1006.4
2016-10-30T03:24:19.297Z,1006.3
2016-10-30T03:24:39.878Z,1006.4
2016-10-30T03:25:00.468Z,1006.3
2016-10-30T03:25:21.049Z,1006.3
2016-10-30T03:25:41.619Z,1006.3
2016-10-30T03:26:02.195Z,1006.3
2016-10-30T03:26:22.792Z,1006.3
2016-10-30T03:26:43.359Z,1006.4
2016-10-30T03:27:03.936Z,1006.3
2016-10-30T03:27:24.501Z,1006.3
2016-10-30T03:27:45.114Z,1006.4
2016-10-30T03:28:05.680Z,1006.4
2016-10-30T03:28:26.251Z,1006.3
2016-10-30T03:28:46.817Z,1006.3
2016-10-30T03:29:07.424Z,1006.3
2016-10-30T03:29:28.003Z,1006.4
2016-10-30T03:29:48.568Z,1006.4
2016-10-30T03:30:09.161Z,1006.4
2016-10-30T03:30:29.725Z,1006.4
2016-10-30T03:30:50.308Z,1006.4
2016-10-30T03:31:10.870Z,1006.4
2016-10-30T03:31:31.470Z,1006.4
2016-10-30T03:31:52.078Z,1006.4
2016-10-30T03:32:12.642Z,1006.4
2016-10-30T03:32:33.230Z,1006.4
2016-10-30T03:32:53.827Z,1006.4
2016-10-30T03:33:14.382Z,1006.4
2016-10-30T03:33:34.966Z,1006.3
2016-10-30T03:33:55.546Z,1006.4
2016-10-30T03:34:16.154Z,1006.3
2016-10-30T03:34:36.748Z,1006.3
2016-10-30T03:34:57.311Z,1006.4
2016-10-30T03:35:17.929Z,1006.4
2016-10-30T03:35:38.499Z,1006.3
2016-10-30T03:35:59.136Z,1006.3
2016-10-30T03:36:19.747Z,1006.4
2016-10-30T03:36:40.330Z,1006.3
2016-10-30T03:37:00.907Z,1006.4
2016-10-30T03:37:21.461Z,1006.4
2016-10-30T03:37:42.041Z,1006.4
2016-10-30T03:38:02.601Z,1006.3
2016-10-30T03:38:23.173Z,1006.3
2016-10-30T03:38:43.745Z,1006.3
2016-10-30T03:39:04.316Z,1006.4
2016-10-30T03:39:24.897Z,1006.3
2016-10-30T03:39:45.502Z,1006.3
2016-10-30T03:40:06.070Z,1006.4
2016-10-30T03:40:26.667Z,1006.4
2016-10-30T03:40:47.228Z,1006.4
2016-10-30T03:41:07.808Z,1006.4
2016-10-30T03:41:28.375Z,1006.4
2016-10-30T03:41:48.967Z,1006.3
2016-10-30T03:42:09.536Z,1006.4
2016-10-30T03:42:30.139Z,1006.4
2016-10-30T03:42:50.746Z,1006.4
2016-10-30T03:43:11.327Z,1006.4
2016-10-30T03:43:31.936Z,1006.4
2016-10-30T03:43:52.506Z,1006.4
2016-10-30T03:44:13.098Z,1006.4
2016-10-30T03:44:33.679Z,1006.3
2016-10-30T03:44:54.272Z,1006.3
2016-10-30T03:45:14.838Z,1006.3
2016-10-30T03:45:35.412Z,1006.4
2016-10-30T03:45:56.020Z,1006.4
2016-10-30T03:46:16.669Z,1006.4
2016-10-30T03:46:37.843Z,1006.4
2016-10-30T03:46:58.414Z,1006.4
2016-10-30T03:47:18.979Z,1006.4
2016-10-30T03:47:39.535Z,1006.4
2016-10-30T03:48:00.119Z,1006.4
2016-10-30T03:48:20.724Z,1006.4
2016-10-30T03:48:41.332Z,1006.4
2016-10-30T03:49:01.909Z,1006.5
2016-10-30T03:49:22.511Z,1006.4
2016-10-30T03:49:43.114Z,1006.4
2016-10-30T03:50:03.691Z,1006.4
2016-10-30T03:50:24.298Z,1006.5
2016-10-30T03:50:44.852Z,1006.5
2016-10-30T03:51:05.491Z,1006.5
2016-10-30T03:51:26.082Z,1006.5
2016-10-30T03:51:46.696Z,1006.5
2016-10-30T03:52:07.275Z,1006.5
2016-10-30T03:52:27.843Z,1006.5
2016-10-30T03:52:48.413Z,1006.5
2016-10-30T03:53:08.981Z,1006.5
2016-10-30T03:53:29.585Z,1006.5
2016-10-30T03:53:50.152Z,1006.5
2016-10-30T03:54:10.740Z,1006.5
2016-10-30T03:54:31.324Z,1006.5
2016-10-30T03:54:51.919Z,1006.5
2016-10-30T03:55:12.502Z,1006.5
2016-10-30T03:55:33.062Z,1006.5
2016-10-30T03:55:53.678Z,1006.5
2016-10-30T03:56:14.235Z,1006.5
2016-10-30T03:56:34.797Z,1006.4
2016-10-30T03:56:55.498Z,1006.5
2016-10-30T03:57:16.549Z,1006.5
2016-10-30T03:57:37.142Z,1006.4
2016-10-30T03:57:57.751Z,1006.5
2016-10-30T03:58:18.349Z,1006.4
2016-10-30T03:58:38.909Z,1006.4
2016-10-30T03:58:59.545Z,1006.4
2016-10-30T03:59:20.101Z,1006.4
2016-10-30T03:59:40.701Z,1006.4
2016-10-30T04:00:01.268Z,1006.4
2016-10-30T04:00:21.842Z,1006.4
2016-10-30T04:00:42.421Z,1006.4
2016-10-30T04:01:03.035Z,1006.4
2016-10-30T04:01:23.614Z,1006.5
2016-10-30T04:01:44.220Z,1006.4
2016-10-30T04:02:04.769Z,1006.4
2016-10-30T04:02:25.333Z,1006.4
2016-10-30T04:02:45.917Z,1006.4
2016-10-30T04:03:06.507Z,1006.4
2016-10-30T04:03:27.077Z,1006.4
2016-10-30T04:03:47.679Z,1006.4
2016-10-30T04:04:08.247Z,1006.5
2016-10-30T04:04:28.887Z,1006.4
2016-10-30T04:04:49.472Z,1006.4
2016-10-30T04:05:10.093Z,1006.5
2016-10-30T04:05:30.733Z,1006.5
2016-10-30T04:05:51.320Z,1006.4
2016-10-30T04:06:11.903Z,1006.4
2016-10-30T04:06:32.465Z,1006.5
2016-10-30T04:06:53.135Z,1006.4
2016-10-30T04:07:13.774Z,1006.5
2016-10-30T04:07:34.438Z,1006.5
2016-10-30T04:07:55.117Z,1006.5
2016-10-30T04:08:15.678Z,1006.5
2016-10-30T04:08:36.245Z,1006.5
2016-10-30T04:08:56.859Z,1006.4
2016-10-30T04:09:17.437Z,1006.4
2016-10-30T04:09:38.002Z,1006.5
2016-10-30T04:09:58.571Z,1006.4
2016-10-30T04:10:19.143Z,1006.4
2016-10-30T04:10:39.763Z,1006.4
2016-10-30T04:11:00.324Z,1006.4
2016-10-30T04:11:20.884Z,1006.4
2016-10-30T04:11:41.457Z,1006.4
2016-10-30T04:12:02.051Z,1006.4
2016-10-30T04:12:22.665Z,1006.4
2016-10-30T04:12:43.323Z,1006.4
2016-10-30T04:13:03.891Z,1006.4
2016-10-30T04:13:24.460Z,1006.4
2016-10-30T04:13:45.050Z,1006.4
2016-10-30T04:14:05.600Z,1006.4
2016-10-30T04:14:26.206Z,1006.4
2016-10-30T04:14:46.795Z,1006.4
2016-10-30T04:15:07.371Z,1006.4
2016-10-30T04:15:27.978Z,1006.4
2016-10-30T04:15:48.528Z,1006.4
2016-10-30T04:16:09.108Z,1006.4
2016-10-30T04:16:29.692Z,1006.4
2016-10-30T04:16:50.254Z,1006.4
2016-10-30T04:17:10.803Z,1006.5
2016-10-30T04:17:31.357Z,1006.4
2016-10-30T04:17:51.955Z,1006.4